DAL2272 KLAX-KSFO
Flight info
| Callsign | DAL2272 |
|---|---|
| Flight time | 0h 46m |
| Altitude | 32000 |
| Route | SUMMR2 STOKD SERFR SERFR4 |
| Aircraft | B738/M-SDE2E3FGHIRWXY/LB1 |
Departure
| Time | 2026-04-20 16:47 |
|---|---|
| Airport | Los Angeles International Airport (KLAX) |
Arrival
| Time | 2026-04-20 17:33 |
|---|---|
| Airport | San Francisco International Airport (KSFO) |
| Time | Latitude | Longitude | Altitude | Speed | Heading |
|---|---|---|---|---|---|
| 2026-04-20 16:28 | 33.94715 | -118.40738 | 129 ft | 0 kts | 189° |
| 2026-04-20 16:37 | 33.94721 | -118.40737 | 129 ft | 2 kts | 189° |
| 2026-04-20 16:37 | 33.94730 | -118.40735 | 129 ft | 1 kts | 190° |
| 2026-04-20 16:38 | 33.94745 | -118.40736 | 129 ft | 2 kts | 156° |
| 2026-04-20 16:38 | 33.94758 | -118.40746 | 129 ft | 2 kts | 129° |
| 2026-04-20 16:38 | 33.94765 | -118.40762 | 129 ft | 2 kts | 101° |
| 2026-04-20 16:38 | 33.94765 | -118.40774 | 129 ft | 1 kts | 84° |
| 2026-04-20 16:39 | 33.94764 | -118.40782 | 129 ft | 0 kts | 82° |
| 2026-04-20 16:41 | 33.94764 | -118.40781 | 129 ft | 0 kts | 82° |
| 2026-04-20 16:42 | 33.94767 | -118.40763 | 129 ft | 5 kts | 82° |
| 2026-04-20 16:43 | 33.94772 | -118.40710 | 128 ft | 7 kts | 83° |
| 2026-04-20 16:43 | 33.94783 | -118.40634 | 128 ft | 10 kts | 68° |
| 2026-04-20 16:43 | 33.94850 | -118.40593 | 127 ft | 12 kts | 27° |
| 2026-04-20 16:43 | 33.94877 | -118.40492 | 126 ft | 14 kts | 83° |
| 2026-04-20 16:44 | 33.94891 | -118.40355 | 124 ft | 17 kts | 83° |
| 2026-04-20 16:44 | 33.94906 | -118.40208 | 123 ft | 17 kts | 83° |
| 2026-04-20 16:44 | 33.94921 | -118.40063 | 122 ft | 16 kts | 83° |
| 2026-04-20 16:44 | 33.94955 | -118.39929 | 118 ft | 17 kts | 39° |
| 2026-04-20 16:45 | 33.95039 | -118.39942 | 117 ft | 10 kts | 294° |
| 2026-04-20 16:45 | 33.95039 | -118.39979 | 118 ft | 0 kts | 264° |
| 2026-04-20 16:46 | 33.95038 | -118.39994 | 118 ft | 8 kts | 264° |
| 2026-04-20 16:46 | 33.95006 | -118.40324 | 122 ft | 73 kts | 263° |
| 2026-04-20 16:46 | 33.94919 | -118.41167 | 129 ft | 133 kts | 263° |
| 2026-04-20 16:46 | 33.94785 | -118.42441 | 139 ft | 161 kts | 263° |
| 2026-04-20 16:47 | 33.94648 | -118.43701 | 431 ft | 152 kts | 262° |
| 2026-04-20 16:47 | 33.94499 | -118.44965 | 1058 ft | 156 kts | 263° |
| 2026-04-20 16:47 | 33.94394 | -118.46221 | 1812 ft | 156 kts | 266° |
| 2026-04-20 16:47 | 33.94340 | -118.47559 | 2276 ft | 166 kts | 268° |
| 2026-04-20 16:48 | 33.94295 | -118.49017 | 2732 ft | 179 kts | 268° |
| 2026-04-20 16:48 | 33.94239 | -118.50574 | 3185 ft | 194 kts | 266° |
| 2026-04-20 16:48 | 33.94118 | -118.52244 | 3689 ft | 206 kts | 264° |
| 2026-04-20 16:48 | 33.93979 | -118.54002 | 4139 ft | 222 kts | 264° |
| 2026-04-20 16:49 | 33.93830 | -118.55919 | 4631 ft | 238 kts | 264° |
| 2026-04-20 16:49 | 33.93670 | -118.57960 | 5204 ft | 251 kts | 264° |
| 2026-04-20 16:49 | 33.93502 | -118.60097 | 5750 ft | 266 kts | 264° |
| 2026-04-20 16:49 | 33.93325 | -118.62355 | 6495 ft | 273 kts | 264° |
| 2026-04-20 16:50 | 33.93147 | -118.64622 | 7320 ft | 276 kts | 263° |
| 2026-04-20 16:50 | 33.92968 | -118.66931 | 8146 ft | 278 kts | 263° |
| 2026-04-20 16:50 | 33.92789 | -118.69244 | 8933 ft | 281 kts | 262° |
| 2026-04-20 16:50 | 33.92609 | -118.71574 | 9724 ft | 284 kts | 262° |
| 2026-04-20 16:51 | 33.92425 | -118.73941 | 10490 ft | 287 kts | 262° |
| 2026-04-20 16:51 | 33.92237 | -118.76344 | 11193 ft | 291 kts | 262° |
| 2026-04-20 16:51 | 33.92039 | -118.78835 | 11625 ft | 306 kts | 262° |
| 2026-04-20 16:51 | 33.91832 | -118.81441 | 12001 ft | 322 kts | 262° |
| 2026-04-20 16:52 | 33.91694 | -118.84264 | 12119 ft | 349 kts | 266° |
| 2026-04-20 16:52 | 33.91750 | -118.87237 | 12410 ft | 365 kts | 269° |
| 2026-04-20 16:52 | 33.91862 | -118.90385 | 12701 ft | 381 kts | 269° |
| 2026-04-20 16:52 | 33.91975 | -118.93609 | 12990 ft | 396 kts | 269° |
| 2026-04-20 16:53 | 33.92086 | -118.97008 | 13363 ft | 407 kts | 269° |
| 2026-04-20 16:53 | 33.92406 | -119.00389 | 13964 ft | 413 kts | 279° |
| 2026-04-20 16:53 | 33.93318 | -119.03681 | 14668 ft | 419 kts | 291° |
| 2026-04-20 16:53 | 33.94732 | -119.06800 | 15227 ft | 426 kts | 298° |
| 2026-04-20 16:54 | 33.96314 | -119.09839 | 15837 ft | 430 kts | 299° |
| 2026-04-20 16:54 | 33.97942 | -119.12889 | 16426 ft | 433 kts | 300° |
| 2026-04-20 16:54 | 33.99768 | -119.15856 | 17011 ft | 439 kts | 306° |
| 2026-04-20 16:54 | 34.01820 | -119.18597 | 17547 ft | 444 kts | 309° |
| 2026-04-20 16:55 | 34.04048 | -119.21181 | 18061 ft | 450 kts | 316° |
| 2026-04-20 16:55 | 34.06539 | -119.23546 | 18568 ft | 456 kts | 320° |
| 2026-04-20 16:55 | 34.09157 | -119.25808 | 19126 ft | 460 kts | 321° |
| 2026-04-20 16:55 | 34.11778 | -119.28017 | 19621 ft | 463 kts | 321° |
| 2026-04-20 16:56 | 34.14424 | -119.30252 | 20161 ft | 465 kts | 321° |
| 2026-04-20 16:56 | 34.17094 | -119.32519 | 20678 ft | 468 kts | 321° |
| 2026-04-20 16:56 | 34.19766 | -119.34800 | 21137 ft | 472 kts | 321° |
| 2026-04-20 16:56 | 34.22446 | -119.37096 | 21651 ft | 474 kts | 321° |
| 2026-04-20 16:57 | 34.25143 | -119.39413 | 22133 ft | 477 kts | 320° |
| 2026-04-20 16:57 | 34.27848 | -119.41742 | 22599 ft | 480 kts | 320° |
| 2026-04-20 16:57 | 34.30564 | -119.44085 | 23061 ft | 483 kts | 320° |
| 2026-04-20 16:57 | 34.33322 | -119.46469 | 23448 ft | 487 kts | 320° |
| 2026-04-20 16:58 | 34.36062 | -119.48841 | 23896 ft | 490 kts | 320° |
| 2026-04-20 16:58 | 34.38835 | -119.51343 | 24293 ft | 492 kts | 317° |
| 2026-04-20 16:58 | 34.41442 | -119.54050 | 24841 ft | 490 kts | 314° |
| 2026-04-20 16:58 | 34.43876 | -119.56820 | 25524 ft | 485 kts | 312° |
| 2026-04-20 16:59 | 34.46317 | -119.59718 | 26135 ft | 484 kts | 311° |
| 2026-04-20 16:59 | 34.48703 | -119.62601 | 26699 ft | 483 kts | 311° |
| 2026-04-20 16:59 | 34.51059 | -119.65474 | 27227 ft | 482 kts | 310° |
| 2026-04-20 16:59 | 34.53420 | -119.68365 | 27773 ft | 482 kts | 311° |
| 2026-04-20 17:00 | 34.58134 | -119.74159 | 28881 ft | 479 kts | 310° |
| 2026-04-20 17:00 | 34.60482 | -119.77053 | 29420 ft | 477 kts | 311° |
| 2026-04-20 17:00 | 34.62801 | -119.79916 | 29922 ft | 476 kts | 311° |
| 2026-04-20 17:01 | 34.65125 | -119.82789 | 30435 ft | 474 kts | 311° |
| 2026-04-20 17:01 | 34.67421 | -119.85628 | 30884 ft | 474 kts | 311° |
| 2026-04-20 17:01 | 34.69746 | -119.88510 | 31301 ft | 474 kts | 311° |
| 2026-04-20 17:01 | 34.72055 | -119.91373 | 31740 ft | 473 kts | 311° |
| 2026-04-20 17:02 | 34.74351 | -119.94222 | 32036 ft | 475 kts | 311° |
| 2026-04-20 17:02 | 34.79045 | -120.00062 | 32058 ft | 488 kts | 311° |
| 2026-04-20 17:03 | 34.83834 | -120.06025 | 32058 ft | 491 kts | 311° |
| 2026-04-20 17:03 | 34.88595 | -120.11958 | 32055 ft | 490 kts | 311° |
| 2026-04-20 17:04 | 34.93387 | -120.17943 | 32048 ft | 489 kts | 311° |
| 2026-04-20 17:04 | 34.98154 | -120.23907 | 32045 ft | 489 kts | 311° |
| 2026-04-20 17:05 | 35.02901 | -120.29860 | 32038 ft | 488 kts | 311° |
| 2026-04-20 17:05 | 35.07626 | -120.35793 | 32028 ft | 489 kts | 311° |
| 2026-04-20 17:06 | 35.12511 | -120.41640 | 32025 ft | 490 kts | 314° |
| 2026-04-20 17:06 | 35.17591 | -120.47259 | 32024 ft | 490 kts | 315° |
| 2026-04-20 17:07 | 35.22690 | -120.52902 | 32028 ft | 491 kts | 315° |
| 2026-04-20 17:07 | 35.27711 | -120.58504 | 32029 ft | 491 kts | 314° |
| 2026-04-20 17:08 | 35.32764 | -120.64175 | 32026 ft | 491 kts | 314° |
| 2026-04-20 17:08 | 35.37822 | -120.69872 | 32028 ft | 490 kts | 313° |
| 2026-04-20 17:09 | 35.42830 | -120.75528 | 32025 ft | 490 kts | 314° |
| 2026-04-20 17:09 | 35.47886 | -120.81207 | 32021 ft | 491 kts | 315° |
| 2026-04-20 17:10 | 35.53275 | -120.86468 | 32015 ft | 494 kts | 319° |
| 2026-04-20 17:10 | 35.58765 | -120.91518 | 32009 ft | 494 kts | 320° |
| 2026-04-20 17:11 | 35.64262 | -120.96584 | 32007 ft | 494 kts | 319° |
| 2026-04-20 17:11 | 35.69804 | -121.01721 | 32006 ft | 493 kts | 319° |
| 2026-04-20 17:12 | 35.75282 | -121.06822 | 32007 ft | 493 kts | 319° |
| 2026-04-20 17:12 | 35.80764 | -121.11941 | 32005 ft | 494 kts | 319° |
| 2026-04-20 17:13 | 35.86218 | -121.17044 | 32006 ft | 493 kts | 319° |
| 2026-04-20 17:13 | 35.91693 | -121.22178 | 32005 ft | 493 kts | 319° |
| 2026-04-20 17:14 | 35.97152 | -121.27305 | 32000 ft | 494 kts | 319° |
| 2026-04-20 17:14 | 36.02650 | -121.32481 | 31997 ft | 496 kts | 319° |
| 2026-04-20 17:15 | 36.08180 | -121.37521 | 32000 ft | 496 kts | 322° |
| 2026-04-20 17:15 | 36.14050 | -121.42175 | 31998 ft | 498 kts | 324° |
| 2026-04-20 17:16 | 36.19948 | -121.46723 | 31999 ft | 499 kts | 324° |
| 2026-04-20 17:16 | 36.25831 | -121.51285 | 32001 ft | 497 kts | 324° |
| 2026-04-20 17:17 | 36.31683 | -121.55847 | 31767 ft | 485 kts | 323° |
| 2026-04-20 17:17 | 36.34556 | -121.58092 | 31108 ft | 483 kts | 323° |
| 2026-04-20 17:17 | 36.37415 | -121.60336 | 30220 ft | 486 kts | 323° |
| 2026-04-20 17:17 | 36.40271 | -121.62583 | 29253 ft | 490 kts | 323° |
| 2026-04-20 17:18 | 36.43145 | -121.64847 | 28227 ft | 495 kts | 323° |
| 2026-04-20 17:18 | 36.46073 | -121.67156 | 27117 ft | 501 kts | 322° |
| 2026-04-20 17:18 | 36.49018 | -121.69481 | 25934 ft | 508 kts | 321° |
| 2026-04-20 17:18 | 36.52041 | -121.71871 | 24666 ft | 515 kts | 321° |
| 2026-04-20 17:19 | 36.55040 | -121.74241 | 23494 ft | 512 kts | 321° |
| 2026-04-20 17:19 | 36.58044 | -121.76605 | 22844 ft | 495 kts | 321° |
| 2026-04-20 17:19 | 36.60894 | -121.78843 | 22284 ft | 480 kts | 321° |
| 2026-04-20 17:19 | 36.63681 | -121.81037 | 21643 ft | 467 kts | 321° |
| 2026-04-20 17:20 | 36.66415 | -121.83198 | 20974 ft | 456 kts | 320° |
| 2026-04-20 17:20 | 36.69040 | -121.85279 | 20302 ft | 446 kts | 321° |
| 2026-04-20 17:20 | 36.71668 | -121.87298 | 19616 ft | 439 kts | 323° |
| 2026-04-20 17:20 | 36.74358 | -121.89067 | 18940 ft | 436 kts | 330° |
| 2026-04-20 17:21 | 36.77254 | -121.90323 | 18267 ft | 434 kts | 339° |
| 2026-04-20 17:21 | 36.80144 | -121.91219 | 17609 ft | 429 kts | 343° |
| 2026-04-20 17:21 | 36.83064 | -121.92009 | 16943 ft | 422 kts | 343° |
| 2026-04-20 17:21 | 36.85896 | -121.92757 | 16300 ft | 415 kts | 344° |
| 2026-04-20 17:22 | 36.88710 | -121.93510 | 15673 ft | 408 kts | 344° |
| 2026-04-20 17:22 | 36.91456 | -121.94259 | 15055 ft | 401 kts | 344° |
| 2026-04-20 17:22 | 36.94161 | -121.95005 | 14418 ft | 395 kts | 344° |
| 2026-04-20 17:22 | 36.96816 | -121.95815 | 13784 ft | 387 kts | 341° |
| 2026-04-20 17:23 | 36.99361 | -121.96786 | 13196 ft | 380 kts | 339° |
| 2026-04-20 17:23 | 37.01849 | -121.97799 | 12614 ft | 374 kts | 339° |
| 2026-04-20 17:23 | 37.04309 | -121.98798 | 12011 ft | 369 kts | 339° |
| 2026-04-20 17:23 | 37.06752 | -121.99775 | 11432 ft | 365 kts | 339° |
| 2026-04-20 17:24 | 37.09164 | -122.00729 | 10843 ft | 360 kts | 339° |
| 2026-04-20 17:24 | 37.11532 | -122.01660 | 10432 ft | 350 kts | 340° |
| 2026-04-20 17:24 | 37.13799 | -122.02548 | 10277 ft | 332 kts | 339° |
| 2026-04-20 17:24 | 37.15953 | -122.03389 | 10159 ft | 315 kts | 339° |
| 2026-04-20 17:25 | 37.18018 | -122.04199 | 9833 ft | 307 kts | 339° |
| 2026-04-20 17:25 | 37.20062 | -122.05005 | 9423 ft | 307 kts | 339° |
| 2026-04-20 17:25 | 37.22102 | -122.05808 | 9026 ft | 308 kts | 339° |
| 2026-04-20 17:25 | 37.24153 | -122.06615 | 8637 ft | 307 kts | 340° |
| 2026-04-20 17:26 | 37.26203 | -122.07419 | 8246 ft | 307 kts | 339° |
| 2026-04-20 17:26 | 37.28245 | -122.08219 | 7979 ft | 302 kts | 339° |
| 2026-04-20 17:26 | 37.30255 | -122.09011 | 7511 ft | 305 kts | 339° |
| 2026-04-20 17:26 | 37.32294 | -122.09818 | 7013 ft | 309 kts | 339° |
| 2026-04-20 17:27 | 37.34340 | -122.10625 | 6600 ft | 304 kts | 340° |
| 2026-04-20 17:27 | 37.36250 | -122.11376 | 6233 ft | 298 kts | 339° |
| 2026-04-20 17:27 | 37.38243 | -122.12142 | 5987 ft | 288 kts | 341° |
| 2026-04-20 17:27 | 37.40169 | -122.12808 | 5614 ft | 284 kts | 342° |
| 2026-04-20 17:28 | 37.42059 | -122.13443 | 5170 ft | 283 kts | 342° |
| 2026-04-20 17:28 | 37.43972 | -122.14093 | 4744 ft | 281 kts | 342° |
| 2026-04-20 17:28 | 37.45877 | -122.14746 | 4346 ft | 278 kts | 343° |
| 2026-04-20 17:28 | 37.47729 | -122.15382 | 4073 ft | 271 kts | 343° |
| 2026-04-20 17:29 | 37.49533 | -122.16001 | 3821 ft | 263 kts | 343° |
| 2026-04-20 17:29 | 37.51274 | -122.16599 | 3785 ft | 253 kts | 343° |
| 2026-04-20 17:29 | 37.52909 | -122.17376 | 3421 ft | 251 kts | 327° |
| 2026-04-20 17:29 | 37.54191 | -122.18800 | 2987 ft | 242 kts | 302° |
| 2026-04-20 17:30 | 37.54915 | -122.20668 | 2593 ft | 232 kts | 284° |
| 2026-04-20 17:30 | 37.55518 | -122.22530 | 2290 ft | 230 kts | 293° |
| 2026-04-20 17:30 | 37.56278 | -122.24245 | 1983 ft | 216 kts | 295° |
| 2026-04-20 17:30 | 37.56943 | -122.25855 | 1715 ft | 202 kts | 294° |
| 2026-04-20 17:31 | 37.57590 | -122.27373 | 1469 ft | 189 kts | 295° |
| 2026-04-20 17:31 | 37.58185 | -122.28789 | 1213 ft | 180 kts | 295° |
| 2026-04-20 17:31 | 37.58758 | -122.30134 | 1018 ft | 171 kts | 295° |
| 2026-04-20 17:31 | 37.59312 | -122.31450 | 778 ft | 165 kts | 296° |
| 2026-04-20 17:32 | 37.59843 | -122.32703 | 577 ft | 163 kts | 296° |
| 2026-04-20 17:32 | 37.60376 | -122.33974 | 375 ft | 165 kts | 297° |
| 2026-04-20 17:32 | 37.60921 | -122.35259 | 168 ft | 164 kts | 297° |
| 2026-04-20 17:32 | 37.61454 | -122.36517 | 14 ft | 156 kts | 298° |
| 2026-04-20 17:33 | 37.61889 | -122.37532 | 22 ft | 99 kts | 296° |
| 2026-04-20 17:33 | 37.62113 | -122.38078 | 31 ft | 43 kts | 298° |
| 2026-04-20 17:33 | 37.62174 | -122.38251 | 31 ft | 7 kts | 248° |
| 2026-04-20 17:33 | 37.62147 | -122.38299 | 31 ft | 7 kts | 226° |
| 2026-04-20 17:34 | 37.62069 | -122.38340 | 31 ft | 13 kts | 188° |
| 2026-04-20 17:34 | 37.61998 | -122.38278 | 31 ft | 14 kts | 118° |
| 2026-04-20 17:34 | 37.61941 | -122.38144 | 31 ft | 18 kts | 118° |
| 2026-04-20 17:34 | 37.61875 | -122.38016 | 31 ft | 16 kts | 134° |
| 2026-04-20 17:35 | 37.61779 | -122.37949 | 30 ft | 15 kts | 168° |
| 2026-04-20 17:35 | 37.61675 | -122.37958 | 30 ft | 14 kts | 199° |
| 2026-04-20 17:35 | 37.61591 | -122.38010 | 31 ft | 12 kts | 209° |
| 2026-04-20 17:35 | 37.61543 | -122.38078 | 31 ft | 10 kts | 265° |
| 2026-04-20 17:36 | 37.61569 | -122.38164 | 31 ft | 9 kts | 297° |
| 2026-04-20 17:36 | 37.61579 | -122.38232 | 31 ft | 7 kts | 237° |
| 2026-04-20 17:36 | 37.61554 | -122.38266 | 31 ft | 0 kts | 224° |